createdAt,value
2023-01-24T00:01:03.983Z,52.75
2023-01-24T00:03:31.586Z,55.45
2023-01-24T00:05:59.147Z,51.63
2023-01-24T00:08:26.647Z,56.63
2023-01-24T00:11:02.189Z,52.92
2023-01-24T00:13:30.349Z,54.30
2023-01-24T00:16:16.157Z,57.35
2023-01-24T00:18:44.235Z,53.28
2023-01-24T00:21:17.486Z,56.85
2023-01-24T00:23:47.821Z,58.55
2023-01-24T00:26:16.460Z,54.90
2023-01-24T00:28:47.546Z,56.63
2023-01-24T00:31:15.293Z,53.28
2023-01-24T00:33:43.481Z,58.45
2023-01-24T00:38:41.326Z,48.03
2023-01-24T00:41:08.937Z,49.47
2023-01-24T00:43:36.446Z,53.38
2023-01-24T00:46:07.478Z,50.63
2023-01-24T00:48:35.169Z,50.65
2023-01-24T00:51:02.975Z,53.20
2023-01-24T00:53:30.732Z,53.95
2023-01-24T00:55:58.254Z,48.15
2023-01-24T00:58:25.922Z,50.30
2023-01-24T01:00:57.351Z,47.30
2023-01-24T01:03:25.313Z,50.53
2023-01-24T01:06:15.002Z,52.40
2023-01-24T01:08:44.134Z,54.47
2023-01-24T01:11:11.598Z,47.97
2023-01-24T01:13:39.344Z,53.13
2023-01-24T01:16:09.020Z,51.33
2023-01-24T01:18:37.772Z,50.67
2023-01-24T01:21:06.759Z,52.53
2023-01-24T01:23:34.526Z,50.53
2023-01-24T01:26:05.088Z,52.88
2023-01-24T01:28:33.152Z,51.25
2023-01-24T01:33:28.239Z,57.22
2023-01-24T01:35:55.732Z,47.15
2023-01-24T01:38:25.477Z,51.65
2023-01-24T01:40:53.047Z,54.65
2023-01-24T01:43:22.987Z,51.47
2023-01-24T01:45:55.977Z,61.25
2023-01-24T01:48:37.456Z,49.85
2023-01-24T01:51:26.705Z,52.67
2023-01-24T01:54:14.959Z,48.33
2023-01-24T01:56:46.907Z,54.17
2023-01-24T01:59:19.216Z,50.17
2023-01-24T02:01:48.884Z,46.88
2023-01-24T02:04:32.678Z,48.65
2023-01-24T02:07:21.156Z,51.60
2023-01-24T02:09:53.559Z,49.83
2023-01-24T02:12:27.539Z,49.13
2023-01-24T02:15:18.156Z,49.05
2023-01-24T02:17:45.869Z,49.20
2023-01-24T02:20:28.423Z,47.67
2023-01-24T02:23:05.025Z,47.30
2023-01-24T02:25:41.030Z,49.47
2023-01-24T02:28:12.384Z,46.88
2023-01-24T02:30:40.288Z,47.78
2023-01-24T02:33:17.067Z,51.22
2023-01-24T02:35:46.534Z,58.42
2023-01-24T02:38:24.601Z,47.80
2023-01-24T02:40:57.988Z,50.47
2023-01-24T02:43:29.350Z,43.65
2023-01-24T02:45:56.828Z,47.08
2023-01-24T02:48:24.284Z,48.33
2023-01-24T02:51:10.284Z,46.83
2023-01-24T02:53:37.916Z,44.97
2023-01-24T02:56:26.556Z,46.13
2023-01-24T02:58:54.767Z,48.10
2023-01-24T03:01:23.696Z,45.50
2023-01-24T03:03:56.129Z,48.25
2023-01-24T03:06:24.441Z,49.38
2023-01-24T03:08:52.926Z,42.03
2023-01-24T03:11:40.616Z,46.63
2023-01-24T03:14:27.744Z,45.75
2023-01-24T03:17:13.719Z,41.28
2023-01-24T03:19:59.972Z,45.13
2023-01-24T03:22:46.322Z,49.83
2023-01-24T03:25:32.384Z,47.72
2023-01-24T03:28:25.026Z,49.67
2023-01-24T03:31:12.856Z,47.05
2023-01-24T03:33:58.831Z,49.70
2023-01-24T03:36:32.698Z,48.03
2023-01-24T03:39:20.238Z,40.50
2023-01-24T03:41:47.807Z,42.97
2023-01-24T03:44:15.372Z,43.17
2023-01-24T03:46:43.818Z,45.00
2023-01-24T03:49:14.360Z,49.50
2023-01-24T03:54:28.888Z,49.33
2023-01-24T03:57:03.241Z,46.38
2023-01-24T03:59:30.853Z,46.67
2023-01-24T04:01:59.110Z,50.17
2023-01-24T04:04:51.344Z,48.35
2023-01-24T04:07:26.495Z,48.75
2023-01-24T04:09:59.159Z,41.50
2023-01-24T04:12:27.383Z,45.70
2023-01-24T04:14:55.328Z,49.50
2023-01-24T04:17:23.407Z,49.13
2023-01-24T04:19:54.033Z,53.13
2023-01-24T04:22:22.036Z,53.63
2023-01-24T04:24:49.607Z,52.00
2023-01-24T04:27:18.411Z,47.60
2023-01-24T04:30:05.245Z,49.60
2023-01-24T04:32:35.407Z,53.50
2023-01-24T04:35:28.160Z,50.17
2023-01-24T04:38:02.109Z,50.17
2023-01-24T04:41:00.406Z,54.15
2023-01-24T04:43:30.462Z,55.15
2023-01-24T04:45:59.744Z,53.20
2023-01-24T04:48:39.617Z,56.90
2023-01-24T04:51:07.247Z,61.03
2023-01-24T04:56:04.519Z,53.10
2023-01-24T04:58:34.961Z,61.22
2023-01-24T05:01:04.743Z,60.00
2023-01-24T05:03:37.281Z,59.20
2023-01-24T05:06:05.361Z,56.85
2023-01-24T05:08:33.924Z,56.38
2023-01-24T05:11:03.443Z,56.70
2023-01-24T05:13:34.910Z,55.33
2023-01-24T05:16:04.267Z,57.95
2023-01-24T05:18:32.408Z,55.45
2023-01-24T05:21:09.207Z,61.05
2023-01-24T05:23:37.009Z,60.33
2023-01-24T05:26:07.168Z,54.13
2023-01-24T05:28:35.548Z,54.42
2023-01-24T05:31:08.415Z,55.30
2023-01-24T05:33:37.067Z,59.40
2023-01-24T05:36:10.398Z,60.20
2023-01-24T05:38:39.208Z,56.22
2023-01-24T05:41:09.385Z,58.55
2023-01-24T05:43:37.975Z,56.38
2023-01-24T05:46:07.128Z,55.03
2023-01-24T05:48:40.054Z,53.90
2023-01-24T05:51:09.858Z,59.42
2023-01-24T05:53:40.366Z,53.13
2023-01-24T05:56:14.113Z,54.13
2023-01-24T05:58:43.227Z,51.08
2023-01-24T06:01:17.515Z,51.65
2023-01-24T06:03:48.565Z,49.17
2023-01-24T06:06:21.271Z,54.42
2023-01-24T06:08:48.997Z,49.42
2023-01-24T06:11:22.933Z,50.20
2023-01-24T06:13:51.784Z,52.00
2023-01-24T06:16:21.713Z,46.00
2023-01-24T06:18:50.456Z,45.20
2023-01-24T06:21:36.654Z,45.95
2023-01-24T06:24:06.328Z,49.65
2023-01-24T06:26:48.151Z,43.05
2023-01-24T06:29:16.127Z,41.83
2023-01-24T06:32:12.591Z,39.28
2023-01-24T06:34:51.958Z,37.53
2023-01-24T06:37:47.831Z,42.00
2023-01-24T06:40:18.825Z,47.35
2023-01-24T06:42:47.447Z,41.90
2023-01-24T06:45:15.237Z,43.85
2023-01-24T06:47:43.673Z,39.60
2023-01-24T06:50:23.396Z,38.63
2023-01-24T06:52:52.030Z,45.45
2023-01-24T06:55:21.159Z,42.90
2023-01-24T06:57:55.530Z,41.17
2023-01-24T07:00:23.284Z,39.25
2023-01-24T07:03:08.284Z,44.40
2023-01-24T07:05:37.663Z,42.28
2023-01-24T07:08:06.687Z,42.30
2023-01-24T07:10:34.157Z,43.90
2023-01-24T07:13:01.747Z,45.35
2023-01-24T07:15:29.423Z,37.53
2023-01-24T07:17:57.236Z,37.50
2023-01-24T07:20:24.923Z,38.30
2023-01-24T07:22:52.989Z,36.78
2023-01-24T07:27:49.476Z,33.83
2023-01-24T07:30:17.214Z,36.60
2023-01-24T07:32:44.789Z,40.08
2023-01-24T07:35:12.605Z,35.60
2023-01-24T07:37:42.540Z,33.03
2023-01-24T07:40:10.820Z,36.90
2023-01-24T07:42:38.290Z,31.83
2023-01-24T07:45:06.736Z,33.20
2023-01-24T07:47:34.292Z,28.52
2023-01-24T07:50:01.906Z,27.65
2023-01-24T07:52:29.386Z,31.17
2023-01-24T07:54:57.003Z,31.83
2023-01-24T07:57:24.482Z,33.15
2023-01-24T07:59:51.939Z,36.65
2023-01-24T08:02:21.550Z,32.00
2023-01-24T08:04:49.048Z,28.05
2023-01-24T08:07:19.295Z,26.33
2023-01-24T08:09:48.742Z,21.85
2023-01-24T08:12:16.794Z,21.75
2023-01-24T08:14:45.309Z,26.38
2023-01-24T08:17:13.023Z,25.52
2023-01-24T08:19:55.359Z,25.17
2023-01-24T08:22:24.445Z,22.05
2023-01-24T08:24:51.939Z,25.10
2023-01-24T08:27:19.481Z,23.23
2023-01-24T08:29:46.967Z,22.98
2023-01-24T08:32:14.472Z,21.50
2023-01-24T08:34:42.063Z,23.50
2023-01-24T08:37:09.588Z,23.77
2023-01-24T08:39:37.037Z,26.67
2023-01-24T08:42:04.731Z,21.40
2023-01-24T08:44:34.921Z,19.95
2023-01-24T08:47:02.577Z,24.02
2023-01-24T08:49:32.457Z,24.55
2023-01-24T08:52:00.353Z,19.15
2023-01-24T08:54:29.123Z,19.58
2023-01-24T08:56:59.080Z,19.35
2023-01-24T08:59:26.670Z,25.27
2023-01-24T09:01:57.260Z,23.92
2023-01-24T09:04:27.212Z,28.55
2023-01-24T09:06:54.928Z,22.30
2023-01-24T09:09:22.469Z,19.65
2023-01-24T09:11:50.022Z,18.58
2023-01-24T09:14:17.463Z,24.63
2023-01-24T09:16:44.960Z,26.38
2023-01-24T09:19:13.434Z,25.77
2023-01-24T09:21:41.021Z,22.55
2023-01-24T09:24:08.863Z,19.83
2023-01-24T09:26:36.491Z,19.73
2023-01-24T09:29:03.975Z,23.17
2023-01-24T09:31:31.868Z,20.33
2023-01-24T09:34:00.248Z,18.70
2023-01-24T09:36:28.808Z,19.45
2023-01-24T09:39:05.362Z,18.55
2023-01-24T09:41:44.707Z,17.38
2023-01-24T09:44:39.483Z,19.15
2023-01-24T09:47:27.070Z,20.92
2023-01-24T09:50:04.040Z,19.08
2023-01-24T09:52:42.686Z,19.25
2023-01-24T09:55:15.647Z,23.00
2023-01-24T09:57:50.457Z,20.58
2023-01-24T10:00:30.883Z,19.90
2023-01-24T10:03:01.150Z,22.30
2023-01-24T10:05:56.332Z,19.42
2023-01-24T10:08:23.880Z,18.80
2023-01-24T10:11:16.075Z,18.02
2023-01-24T10:14:09.518Z,23.00
2023-01-24T10:16:47.879Z,18.70
2023-01-24T10:19:36.663Z,17.80
2023-01-24T10:22:25.279Z,19.40
2023-01-24T10:25:03.812Z,21.20
2023-01-24T10:27:37.324Z,17.42
2023-01-24T10:30:22.578Z,18.15
2023-01-24T10:32:54.024Z,17.67
2023-01-24T10:35:27.533Z,17.23
2023-01-24T10:37:58.925Z,16.08
2023-01-24T10:40:27.023Z,17.17
2023-01-24T10:45:36.905Z,21.02
2023-01-24T10:48:24.699Z,19.90
2023-01-24T10:53:31.089Z,15.07
2023-01-24T10:56:04.907Z,16.00
2023-01-24T10:58:46.816Z,19.05
2023-01-24T11:01:22.798Z,17.27
2023-01-24T11:03:52.306Z,17.92
2023-01-24T11:06:26.161Z,17.02
2023-01-24T11:09:10.479Z,17.95
2023-01-24T11:11:50.897Z,16.48
2023-01-24T11:14:25.488Z,18.25
2023-01-24T11:16:58.650Z,20.10
2023-01-24T11:19:30.547Z,16.90
2023-01-24T11:22:01.286Z,16.88
2023-01-24T11:24:30.033Z,17.73
2023-01-24T11:27:19.271Z,16.15
2023-01-24T11:30:06.614Z,16.02
2023-01-24T11:32:57.163Z,15.60
2023-01-24T11:35:28.333Z,18.88
2023-01-24T11:38:17.602Z,14.82
2023-01-24T11:41:08.442Z,19.23
2023-01-24T11:43:58.630Z,15.20
2023-01-24T11:46:33.115Z,15.13
2023-01-24T11:49:25.559Z,18.50
2023-01-24T11:52:14.323Z,19.98
2023-01-24T11:54:48.177Z,17.35
2023-01-24T11:57:19.515Z,23.30
2023-01-24T12:00:19.942Z,23.33
2023-01-24T12:03:11.672Z,18.75
2023-01-24T12:06:03.335Z,21.50
2023-01-24T12:08:53.629Z,20.73
2023-01-24T12:11:36.998Z,23.55
2023-01-24T12:14:42.453Z,19.77
2023-01-24T12:17:24.330Z,19.95
2023-01-24T12:20:31.492Z,18.23
2023-01-24T12:23:30.287Z,20.63
2023-01-24T12:26:04.637Z,18.30
2023-01-24T12:28:44.132Z,16.60
2023-01-24T12:31:18.590Z,19.50
2023-01-24T12:34:09.149Z,18.85
2023-01-24T12:36:55.467Z,21.50
2023-01-24T12:39:32.309Z,21.75
2023-01-24T12:42:11.621Z,21.77
2023-01-24T12:44:53.402Z,19.40
2023-01-24T12:47:43.825Z,18.98
2023-01-24T12:50:31.806Z,18.70
2023-01-24T12:53:27.766Z,22.30
2023-01-24T12:56:11.295Z,18.20
2023-01-24T12:58:41.613Z,19.67
2023-01-24T13:01:21.130Z,20.25
2023-01-24T13:03:55.759Z,23.10
2023-01-24T13:06:58.698Z,18.13
2023-01-24T13:09:43.763Z,19.55
2023-01-24T13:12:24.348Z,23.67
2023-01-24T13:15:06.058Z,23.17
2023-01-24T13:18:04.328Z,20.45
2023-01-24T13:20:51.834Z,21.25
2023-01-24T13:23:39.890Z,20.67
2023-01-24T13:26:32.754Z,22.23
2023-01-24T13:29:18.571Z,22.48
2023-01-24T13:31:59.474Z,18.95
2023-01-24T13:34:32.910Z,16.45
2023-01-24T13:37:01.813Z,18.05
2023-01-24T13:39:41.046Z,14.10
2023-01-24T13:42:23.587Z,12.50
2023-01-24T13:44:51.724Z,13.77
2023-01-24T13:49:55.590Z,16.20
2023-01-24T13:52:34.885Z,16.40
2023-01-24T13:55:05.786Z,13.48
2023-01-24T13:57:38.164Z,13.35
2023-01-24T14:00:12.690Z,11.98
2023-01-24T14:02:48.899Z,15.00
2023-01-24T14:05:31.697Z,12.95
2023-01-24T14:08:02.063Z,14.88
2023-01-24T14:10:37.145Z,12.95
2023-01-24T14:13:05.904Z,14.80
2023-01-24T14:15:42.021Z,15.05
2023-01-24T14:18:54.347Z,14.27
2023-01-24T14:21:26.013Z,14.07
2023-01-24T14:23:58.611Z,15.18
2023-01-24T14:26:31.256Z,17.77
2023-01-24T14:29:03.220Z,15.75
2023-01-24T14:31:35.918Z,17.63
2023-01-24T14:34:12.093Z,22.65
2023-01-24T14:36:39.927Z,17.63
2023-01-24T14:39:17.999Z,16.38
2023-01-24T14:44:26.152Z,20.63
2023-01-24T14:46:56.452Z,19.80
2023-01-24T14:49:28.826Z,16.33
2023-01-24T14:52:00.538Z,16.50
2023-01-24T14:54:35.608Z,15.65
2023-01-24T14:57:19.052Z,13.55
2023-01-24T15:00:17.812Z,17.27
2023-01-24T15:03:02.635Z,17.92
2023-01-24T15:05:38.403Z,19.88
2023-01-24T15:08:17.614Z,17.67
2023-01-24T15:10:45.091Z,17.65
2023-01-24T15:13:24.610Z,16.42
2023-01-24T15:15:52.870Z,15.52
2023-01-24T15:18:33.281Z,14.68
2023-01-24T15:21:01.314Z,15.82
2023-01-24T15:23:32.246Z,22.85
2023-01-24T15:26:24.069Z,17.52
2023-01-24T15:28:51.653Z,19.00
2023-01-24T15:31:25.033Z,19.02
2023-01-24T15:34:00.946Z,19.27
2023-01-24T15:36:33.982Z,18.50
2023-01-24T15:39:02.443Z,19.52
2023-01-24T15:41:55.103Z,22.60
2023-01-24T15:44:23.039Z,19.92
2023-01-24T15:47:17.227Z,19.45
2023-01-24T15:50:21.828Z,21.77
2023-01-24T15:53:13.241Z,20.30
2023-01-24T15:55:41.076Z,21.15
2023-01-24T15:58:09.983Z,21.40
2023-01-24T16:00:38.127Z,18.92
2023-01-24T16:03:08.503Z,21.25
2023-01-24T16:05:36.029Z,22.17
2023-01-24T16:08:03.634Z,21.92
2023-01-24T16:10:32.471Z,22.77
2023-01-24T16:13:00.022Z,21.92
2023-01-24T16:15:27.513Z,27.08
2023-01-24T16:17:57.680Z,24.13
2023-01-24T16:20:30.078Z,19.90
2023-01-24T16:22:57.511Z,21.65
2023-01-24T16:25:25.221Z,25.65
2023-01-24T16:27:53.161Z,21.17
2023-01-24T16:30:25.162Z,19.05
2023-01-24T16:32:53.944Z,22.48
2023-01-24T16:35:22.176Z,24.90
2023-01-24T16:37:49.662Z,19.15
2023-01-24T16:40:18.551Z,21.60
2023-01-24T16:42:48.271Z,21.77
2023-01-24T16:45:20.917Z,17.30
2023-01-24T16:47:48.697Z,19.33
2023-01-24T16:50:17.343Z,20.23
2023-01-24T16:52:44.994Z,21.38
2023-01-24T16:55:12.740Z,24.98
2023-01-24T16:57:40.229Z,21.88
2023-01-24T17:00:13.636Z,25.38
2023-01-24T17:02:45.140Z,22.40
2023-01-24T17:05:12.993Z,29.77
2023-01-24T17:07:40.571Z,26.95
2023-01-24T17:10:09.105Z,24.00
2023-01-24T17:12:36.805Z,24.95
2023-01-24T17:15:07.573Z,24.50
2023-01-24T17:17:35.993Z,25.30
2023-01-24T17:20:05.794Z,24.13
2023-01-24T17:22:33.639Z,27.33
2023-01-24T17:25:01.332Z,26.15
2023-01-24T17:27:28.880Z,27.05
2023-01-24T17:29:57.220Z,29.55
2023-01-24T17:32:24.832Z,27.52
2023-01-24T17:34:52.309Z,31.00
2023-01-24T17:37:19.766Z,30.27
2023-01-24T17:39:47.728Z,29.85
2023-01-24T17:42:15.188Z,34.47
2023-01-24T17:44:42.649Z,37.33
2023-01-24T17:47:10.124Z,34.38
2023-01-24T17:49:37.809Z,28.35
2023-01-24T17:52:05.375Z,32.08
2023-01-24T17:54:33.212Z,31.05
2023-01-24T17:57:00.927Z,31.90
2023-01-24T17:59:28.419Z,32.58
2023-01-24T18:01:55.935Z,31.58
2023-01-24T18:04:23.457Z,27.75
2023-01-24T18:06:50.929Z,33.72
2023-01-24T18:09:18.385Z,33.05
2023-01-24T18:11:45.890Z,30.75
2023-01-24T18:14:13.373Z,35.35
2023-01-24T18:16:40.941Z,34.00
2023-01-24T18:19:08.505Z,33.88
2023-01-24T18:21:35.988Z,32.05
2023-01-24T18:24:04.038Z,34.90
2023-01-24T18:26:32.241Z,37.47
2023-01-24T18:34:02.035Z,39.33
2023-01-24T18:36:30.668Z,42.08
2023-01-24T18:38:58.267Z,42.28
2023-01-24T18:41:30.577Z,36.78
2023-01-24T18:44:01.029Z,48.45
2023-01-24T18:48:55.909Z,39.75
2023-01-24T18:51:23.376Z,37.55
2023-01-24T18:53:53.049Z,37.55
2023-01-24T18:56:20.797Z,40.20
2023-01-24T18:58:48.872Z,41.00
2023-01-24T19:01:23.417Z,45.08
2023-01-24T19:03:53.684Z,31.38
2023-01-24T19:06:35.049Z,42.00
2023-01-24T19:09:06.686Z,36.75
2023-01-24T19:11:37.461Z,37.38
2023-01-24T19:14:06.261Z,34.03
2023-01-24T19:16:40.655Z,34.97
2023-01-24T19:19:14.175Z,32.88
2023-01-24T19:21:42.601Z,38.42
2023-01-24T19:24:10.744Z,36.60
2023-01-24T19:29:06.226Z,39.38
2023-01-24T19:34:01.161Z,36.00
2023-01-24T19:36:28.715Z,40.38
2023-01-24T19:38:59.514Z,37.65
2023-01-24T19:41:29.230Z,39.17
2023-01-24T19:46:47.966Z,38.33
2023-01-24T19:49:15.793Z,41.80
2023-01-24T19:51:43.543Z,38.20
2023-01-24T19:54:11.001Z,36.17
2023-01-24T19:56:38.466Z,36.75
2023-01-24T19:59:06.450Z,36.72
2023-01-24T20:01:34.445Z,37.65
2023-01-24T20:04:22.181Z,36.72
2023-01-24T20:06:50.103Z,37.15
2023-01-24T20:09:17.693Z,38.83
2023-01-24T20:11:51.818Z,42.05
2023-01-24T20:14:22.355Z,41.78
2023-01-24T20:16:52.249Z,46.80
2023-01-24T20:19:29.107Z,40.53
2023-01-24T20:21:58.801Z,45.40
2023-01-24T20:24:26.873Z,41.45
2023-01-24T20:29:22.308Z,37.13
2023-01-24T20:31:51.334Z,38.85
2023-01-24T20:34:19.347Z,39.20
2023-01-24T20:36:50.319Z,41.17
2023-01-24T20:39:21.557Z,37.92
2023-01-24T20:41:50.723Z,40.03
2023-01-24T20:44:26.489Z,34.20
2023-01-24T20:46:58.021Z,37.45
2023-01-24T20:49:26.000Z,38.75
2023-01-24T20:51:54.041Z,36.30
2023-01-24T20:54:22.479Z,37.95
2023-01-24T20:56:57.602Z,38.63
2023-01-24T20:59:26.705Z,39.15
2023-01-24T21:01:56.777Z,37.75
2023-01-24T21:04:24.535Z,41.83
2023-01-24T21:06:52.087Z,41.40
2023-01-24T21:09:20.244Z,41.67
2023-01-24T21:11:48.092Z,38.53
2023-01-24T21:14:17.049Z,34.88
2023-01-24T21:16:47.175Z,51.58
2023-01-24T21:19:18.592Z,41.88
2023-01-24T21:21:48.545Z,39.40
2023-01-24T21:24:31.722Z,47.05
2023-01-24T21:27:00.620Z,45.22
2023-01-24T21:29:28.477Z,43.30
2023-01-24T21:31:56.327Z,44.80
2023-01-24T21:34:25.933Z,44.65
2023-01-24T21:36:53.507Z,42.60
2023-01-24T21:39:26.356Z,42.97
2023-01-24T21:41:55.044Z,45.63
2023-01-24T21:44:29.393Z,38.20
2023-01-24T21:46:56.954Z,45.03
2023-01-24T21:49:24.841Z,45.83
2023-01-24T21:51:58.815Z,42.38
2023-01-24T21:54:27.531Z,43.75
2023-01-24T21:57:30.864Z,45.90
2023-01-24T22:00:01.620Z,46.40
2023-01-24T22:02:39.479Z,50.45
2023-01-24T22:05:07.763Z,45.38
2023-01-24T22:07:35.504Z,47.47
2023-01-24T22:10:04.188Z,52.13
2023-01-24T22:12:35.253Z,42.78
2023-01-24T22:15:03.179Z,40.03
2023-01-24T22:20:00.331Z,45.88
2023-01-24T22:22:33.921Z,45.92
2023-01-24T22:25:26.643Z,45.70
2023-01-24T22:27:54.524Z,45.10
2023-01-24T22:30:24.197Z,51.60
2023-01-24T22:32:52.765Z,56.80
2023-01-24T22:35:23.756Z,53.83
2023-01-24T22:37:58.190Z,50.70
2023-01-24T22:40:27.142Z,47.25
2023-01-24T22:42:58.535Z,49.85
2023-01-24T22:45:27.764Z,51.40
2023-01-24T22:47:55.537Z,51.50
2023-01-24T22:50:23.931Z,52.78
2023-01-24T22:52:52.131Z,45.58
2023-01-24T22:55:20.411Z,48.13
2023-01-24T22:57:47.907Z,47.40
2023-01-24T23:00:16.243Z,50.88
2023-01-24T23:02:43.718Z,47.40
2023-01-24T23:05:11.809Z,52.42
2023-01-24T23:07:39.743Z,47.67
2023-01-24T23:10:07.571Z,46.40
2023-01-24T23:12:53.481Z,42.28
2023-01-24T23:15:40.387Z,39.17
2023-01-24T23:18:13.070Z,44.08
2023-01-24T23:20:59.220Z,51.25
2023-01-24T23:23:26.618Z,45.88
2023-01-24T23:25:54.251Z,47.15
2023-01-24T23:28:21.839Z,42.65
2023-01-24T23:30:59.519Z,41.40
2023-01-24T23:33:39.682Z,43.15
2023-01-24T23:36:09.263Z,41.88
2023-01-24T23:38:36.775Z,40.15
2023-01-24T23:41:09.013Z,43.28
2023-01-24T23:43:36.572Z,50.75
2023-01-24T23:46:09.866Z,52.65
2023-01-24T23:48:38.391Z,58.58
2023-01-24T23:51:06.558Z,52.05
2023-01-24T23:53:34.032Z,56.38
2023-01-24T23:56:01.777Z,48.08
2023-01-24T23:58:29.655Z,47.58
